Terminal Aerodrome Forecast
Issued by NWS

Home | Current Version | Previous Version | Text Only | Print | Product List | Glossary On
Versions: 1 2 3 4 5 6 7 8 9 10 11 12 13 14 15 16 17 18 19 20 21 22 23 24 25 26 27
000
FTUS44 KBMX 040520
TAFEET
TAF
KEET 040520Z 0406/0506 31006KT P6SM SCT070
     FM041400 31009KT P6SM SKC
     FM041800 30013G23KT P6SM SCT050
     FM050100 30010KT P6SM SHRA BKN050=

USA.gov is the U.S. government's official web portal to all federal, state and local government web resources and services.